Station info - map view · info · telemetry · weather · raw · status · beacons · messages · bulletins · browse · moving · my account
Callsign, ship name or locator: Clear       
It is possible to search using wildcards (*?) after a prefix. Example: OH*
APRS station IN3NSJ-9 - show graphs
Map loading...
Comment: 73ENZOINNgiro
Mic-E message: En route
Location: 44°18.57' N 7°48.14' E - locator JN34VH64GG - show map - static map
4.8 miles Southwest bearing 218° from Vicoforte, Provincia di Cuneo, Piedmont, Italy [?]
6.0 miles South bearing 187° from Mondovì, Provincia di Cuneo, Piedmont, Italy
52.8 miles South bearing 174° from Torino, Provincia di Torino, Piedmont, Italy
104.7 miles Southwest bearing 221° from Milan, Province of Milan, Lombardy, Italy
Last position: 2020-08-11 07:50:05 EDT (46m33s ago)
2020-08-11 13:50:05 CEST local time at Vicoforte, Italy [?]
Altitude: 2037 ft
Course: 182°
Speed: 41 MPH
Device: Kenwood: TM-D700 (rig)
Last path: IN3NSJ-9>TT1XU7 via IR1BP*,WIDE2-1,qAR,IZ1REU-11 (good)
Positions stored: 134053
Packet rate: 90 seconds between packets on average during 1076 seconds.
Other SSIDs: IN3NSJ IN3NSJ-4 IN3NSJ-7
Stations near current position of IN3NSJ-9 - show more
callsign distance last heard - EDT      callsign distance last heard - EDT
IW1CGW-41.1 miles 6°2020-08-10 10:09:01 I/PM-2241.4 miles 137°2020-07-29 06:56:46
I/PM-2171.5 miles 260°2020-08-10 02:10:48 R19103642.9 miles 109°2020-07-13 21:36:11
IR1UHW3.5 miles 186°2020-08-11 08:29:49 I/PM-2363.6 miles 296°2020-08-10 02:16:38
IR1UZ3.8 miles 15°2020-08-11 08:33:07 IZ1DME-74.8 miles 206°2020-08-05 10:35:08
I/PM-1985.1 miles 133°2020-07-29 06:22:51 R18508635.4 miles 348°2020-07-19 20:50:44
IW1CGW-35.4 miles 6°2020-08-11 08:31:52 R19103655.6 miles 203°2020-07-15 08:35:01
IZ1VCX-95.8 miles 66°2020-07-20 04:14:22 R19208215.8 miles 6°2020-07-12 21:15:52
IW1CGW-156.0 miles 3°2020-08-11 08:28:10 IW1CGW-146.0 miles 3°2020-07-30 08:57:01
IW1CGW-116.0 miles 3°2020-07-30 09:51:29 I/PM-4076.4 miles 201°2020-07-15 11:07:49
IK1GPG6.9 miles 2°2020-08-10 13:45:02 R19301288.4 miles 353°2020-08-03 21:34:40
Stations which heard IN3NSJ-9 directly on radio –
callsign pkts first heard - EDT last heard longest (tx => rx) longest at - EDT
IR1BV 36 2020-08-02 04:18:23 2020-08-11 07:32:43 JN34VH > JN34RO 25.9 miles 315° 2020-08-02 05:47:45
IR3BT 11 2020-08-02 00:11:06 2020-08-02 02:02:49 JN55GK > JN56MD 53.9 miles 28° 2020-08-02 02:02:49
IR2UBX-11 1 2020-08-02 02:54:32 2020-08-02 02:54:32 JN45QC > JN45MQ 45.0 miles 340° 2020-08-02 02:54:32
IR3AS 20 2020-08-01 02:51:35 2020-08-02 01:31:14 JN55RL > JN56QB 38.4 miles 352° 2020-08-02 01:31:14
IN3XSV 2 2020-08-02 00:11:05 2020-08-02 00:12:09 JN56SB > JN55PX 13.0 miles 250° 2020-08-02 00:12:09
IN3RSV 1 2020-08-02 00:14:15 2020-08-02 00:14:15 JN56SB > JN55NV 20.6 miles 243° 2020-08-02 00:14:15
IR2BZ 36 2020-08-02 01:56:30 2020-08-02 02:56:37 JN45PC > JN45XO 46.7 miles 42° 2020-08-02 02:56:37
IR2BT 5 2020-08-02 01:58:36 2020-08-02 02:08:04 JN55HK > JN55FO 16.1 miles 324° 2020-08-02 01:58:36
IR2Y 13 2020-08-02 02:01:15 2020-08-02 02:24:24 JN55BF > JN55EK 17.0 miles 46° 2020-08-02 02:24:24
IR1UFB 3 2020-08-02 03:42:02 2020-08-02 03:47:49 JN44DV > JN35WD 27.5 miles 309° 2020-08-02 03:42:02
IR3EG-11 20 2020-08-02 00:58:59 2020-08-02 01:33:57 JN55QK > JN55SS 23.3 miles 18° 2020-08-02 01:33:57
IR2S 59 2020-08-02 01:57:33 2020-08-02 03:39:53 JN44EV > JN55DQ 105.3 miles 59° 2020-08-02 03:39:53
IR2BW 7 2020-08-02 01:59:07 2020-08-02 02:18:38 JN55HK > JN55DN 19.9 miles 300° 2020-08-02 01:59:07
IK2ILW 6 2020-08-02 02:18:38 2020-08-02 02:31:46 JN55AC > JN45VV 55.8 miles 349° 2020-08-02 02:31:46
IR3CA-2 1 2020-08-02 01:24:02 2020-08-02 01:24:02 JN55TM > JN66EA 49.3 miles 47° 2020-08-02 01:24:02
IZ3VIV-15 17 2020-08-02 00:55:40 2020-08-02 01:44:17 JN55VS > JN55PJ 34.4 miles 223° 2020-08-02 00:55:40
IW3FVZ-11 1 2020-08-02 00:52:27 2020-08-02 00:52:27 JN55US > JN55WH 34.6 miles 169° 2020-08-02 00:52:27
IZ1XBB-1 27 2020-08-02 03:18:31 2020-08-02 03:42:03 JN44DV > JN44KV 26.7 miles 93° 2020-08-02 03:42:03
IQ4SC 1 2020-08-02 02:29:09 2020-08-02 02:29:09 JN55AD > JN54IO 48.2 miles 141° 2020-08-02 02:29:09
IV3GCH 1 2020-08-02 00:54:35 2020-08-02 00:54:35 JN55VS > JN65KX 55.1 miles 76° 2020-08-02 00:54:35
IU2GOH 6 2020-08-02 02:07:34 2020-08-02 02:15:28 JN55EL > JN55BL 11.5 miles 270° 2020-08-02 02:07:34
IR3EO 3 2020-08-02 01:24:00 2020-08-02 01:32:46 JN55RL > JN66OF 102.1 miles 58° 2020-08-02 01:32:46
IQ3VO 65 2020-08-02 00:58:27 2020-08-02 02:54:31 JN45QC > JN55MQ 92.4 miles 62° 2020-08-02 02:54:31
IQ1CN-10 15 2020-08-10 08:25:22 2020-08-11 05:35:00 JN34UH > JN34TJ 5.7 miles 316° 2020-08-10 08:58:12
IR1BP 82 2020-08-02 03:54:08 2020-08-11 07:50:05 JN44BT > JN44BJ 30.1 miles 180° 2020-08-02 03:54:08
IR3UDH 23 2020-08-01 02:51:34 2020-08-02 00:14:47 JN56SB > JN56TC 7.7 miles 69° 2020-08-01 02:51:34
IR3EP-11 13 2020-08-02 01:11:34 2020-08-02 01:37:22 JN55TP > JN55SK 16.0 miles 194° 2020-08-02 01:11:34
IR2DQ 25 2020-08-02 02:12:50 2020-08-02 02:39:42 JN55CM > JN55AD 26.0 miles 206° 2020-08-02 02:12:50
IK3OCD-10 6 2020-08-02 00:37:43 2020-08-02 00:44:00 JN55TU > JN65AL 33.4 miles 142° 2020-08-02 00:44:00
IZ1TMF 6 2020-08-02 04:14:35 2020-08-11 03:35:05 JN34UI > JN35PA 50.2 miles 335° 2020-08-11 03:35:05
IR2AL 1 2020-08-02 02:52:56 2020-08-02 02:52:56 JN45QB > JN45OL 29.6 miles 340° 2020-08-02 02:52:56
IR1BY 2 2020-08-02 03:25:29 2020-08-02 03:43:05 JN44JV > JN44EH 47.9 miles 209° 2020-08-02 03:25:29
IQ2ZY 5 2020-08-02 02:49:46 2020-08-02 02:54:31 JN45RB > JN45RD 6.7 miles 325° 2020-08-02 02:49:46
IR2BP 54 2020-08-02 01:38:54 2020-08-02 02:54:31 JN45QC > JN55DN 55.1 miles 54° 2020-08-02 02:54:31
IK1NET-3 2 2020-08-10 08:34:32 2020-08-10 09:02:31 JN34UH > JN34SU 38.4 miles 345° 2020-08-10 09:02:31
IQ3ZF 3 2020-08-02 01:53:54 2020-08-02 02:00:45 JN55GK > JN55KL 14.6 miles 78° 2020-08-02 02:00:45
IR2DD 11 2020-08-02 01:41:39 2020-08-02 02:01:47 JN55OK > JN55GL 31.2 miles 277° 2020-08-02 01:41:39
IU3JSX-10 7 2020-08-02 01:08:11 2020-08-02 01:23:29 JN55TQ > JN55TO 6.3 miles 190° 2020-08-02 01:08:11
IR3BF 3 2020-08-02 01:14:48 2020-08-02 01:21:22 JN55TN > JN66DB 46.4 miles 44° 2020-08-02 01:21:22

Only position packets which were originated by the station are shown here. The range statistics show some extra long hops, because some digipeaters do not correctly add themselves to the digipeater path. Please check the raw packets.
About this site
This page shows real-time information collected from the Automatic Position Reporting System Internet network (APRS-IS). APRS is used by amateur (ham) radio operators to transmit real-time position information, weather data, telemetry and messages over the radio. A vehicle equipped with a GPS receiver, a VHF transmitter or HF transceiver and a small computer device called a tracker transmits it's location, speed and course in a small data packet, which is then received by a nearby iGate receiving site which forwards the packet on the Internet. Systems connected to the Internet can send information on the APRS-IS without a radio transmitter, or collect and display information transmitted anywhere in the world.
User guide · FAQ · Blog · Discussion group · Linking to aprs.fi · AIS sites · Service status · Database statistics · Advertising on aprs.fi · Technical details · API · Change log · Planned changes · Credits and thanks · Terms Of Service · iPhone/iPad APRS